createdAt,value
2022-10-09T00:02:01.996Z,101389.72
2022-10-09T00:05:03.803Z,101387.13
2022-10-09T00:08:05.604Z,101395.19
2022-10-09T00:11:09.047Z,101392.59
2022-10-09T00:14:10.426Z,101383.03
2022-10-09T00:17:11.902Z,101377.06
2022-10-09T00:20:13.333Z,101379.63
2022-10-09T00:23:17.251Z,101381.38
2022-10-09T00:26:19.522Z,101380.44
2022-10-09T00:29:20.903Z,101371.72
2022-10-09T00:32:22.443Z,101373.50
2022-10-09T00:35:23.848Z,101371.84
2022-10-09T00:38:25.290Z,101369.53
2022-10-09T00:41:29.624Z,101370.47
2022-10-09T00:44:52.666Z,101374.06
2022-10-09T00:48:06.856Z,101367.91
2022-10-09T00:51:09.152Z,101361.69
2022-10-09T00:54:14.837Z,101362.66
2022-10-09T00:57:16.438Z,101361.00
2022-10-09T01:00:18.461Z,101362.78
2022-10-09T01:03:20.269Z,101361.94
2022-10-09T01:06:33.707Z,101355.00
2022-10-09T01:09:56.720Z,101351.53
2022-10-09T01:13:08.958Z,101350.75
2022-10-09T01:16:23.877Z,101349.88
2022-10-09T01:19:37.022Z,101348.19
2022-10-09T01:23:10.736Z,101347.50
2022-10-09T01:26:45.685Z,101344.97
2022-10-09T01:29:51.573Z,101337.22
2022-10-09T01:32:54.131Z,101344.22
2022-10-09T01:35:55.952Z,101338.06
2022-10-09T01:39:00.500Z,101336.22
2022-10-09T01:42:02.417Z,101332.69
2022-10-09T01:45:04.493Z,101323.94
2022-10-09T01:48:09.256Z,101325.75
2022-10-09T01:51:10.788Z,101333.63
2022-10-09T01:54:14.875Z,101327.50
2022-10-09T01:57:26.598Z,101328.31
2022-10-09T02:00:33.420Z,101321.38
2022-10-09T02:03:38.307Z,101326.78
2022-10-09T02:06:41.640Z,101319.81
2022-10-09T02:09:44.299Z,101313.75
2022-10-09T02:12:51.721Z,101314.63
2022-10-09T02:16:00.612Z,101308.50
2022-10-09T02:19:08.373Z,101304.97
2022-10-09T02:22:20.310Z,101312.88
2022-10-09T02:25:21.900Z,101311.22
2022-10-09T02:28:23.553Z,101306.94
2022-10-09T02:31:30.868Z,101303.34
2022-10-09T02:34:32.570Z,101309.50
2022-10-09T02:37:34.047Z,101306.81
2022-10-09T02:40:35.482Z,101305.97
2022-10-09T02:43:36.852Z,101304.13
2022-10-09T02:46:38.462Z,101304.03
2022-10-09T02:49:40.010Z,101307.41
2022-10-09T02:52:41.388Z,101299.75
2022-10-09T02:55:42.802Z,101299.91
2022-10-09T02:58:44.178Z,101300.06
2022-10-09T03:01:45.677Z,101298.31
2022-10-09T03:04:47.168Z,101288.75
2022-10-09T03:07:51.523Z,101288.72
2022-10-09T03:10:52.926Z,101284.28
2022-10-09T03:13:54.547Z,101283.47
2022-10-09T03:16:55.933Z,101288.72
2022-10-09T03:19:57.385Z,101295.72
2022-10-09T03:22:58.770Z,101286.94
2022-10-09T03:26:03.201Z,101295.72
2022-10-09T03:29:04.603Z,101299.16
2022-10-09T03:32:06.083Z,101293.91
2022-10-09T03:35:07.880Z,101295.69
2022-10-09T03:38:09.267Z,101300.16
2022-10-09T03:41:10.722Z,101305.47
2022-10-09T03:44:12.167Z,101295.84
2022-10-09T03:47:13.669Z,101297.69
2022-10-09T03:50:15.120Z,101306.50
2022-10-09T03:53:17.876Z,101305.56
2022-10-09T03:56:20.151Z,101304.75
2022-10-09T03:59:21.583Z,101303.88
2022-10-09T04:02:23.064Z,101296.88
2022-10-09T04:05:24.574Z,101296.88
2022-10-09T04:08:26.386Z,101302.03
2022-10-09T04:11:27.977Z,101300.28
2022-10-09T04:14:29.379Z,101302.91
2022-10-09T04:17:31.006Z,101304.63
2022-10-09T04:20:32.614Z,101299.34
2022-10-09T04:23:34.090Z,101301.13
2022-10-09T04:26:35.891Z,101301.19
2022-10-09T04:29:39.349Z,101294.28
2022-10-09T04:32:40.758Z,101304.84
2022-10-09T04:35:43.527Z,101303.22
2022-10-09T04:38:44.912Z,101302.50
2022-10-09T04:41:46.285Z,101303.28
2022-10-09T04:44:47.684Z,101314.47
2022-10-09T04:47:49.097Z,101301.16
2022-10-09T04:50:50.497Z,101306.50
2022-10-09T04:53:52.068Z,101304.84
2022-10-09T04:56:53.536Z,101300.53
2022-10-09T04:59:54.917Z,101303.22
2022-10-09T05:02:56.342Z,101293.59
2022-10-09T05:06:02.220Z,101292.72
2022-10-09T05:09:04.028Z,101291.88
2022-10-09T05:12:05.468Z,101290.97
2022-10-09T05:15:07.242Z,101302.34
2022-10-09T05:18:08.627Z,101290.13
2022-10-09T05:21:10.390Z,101293.75
2022-10-09T05:24:11.788Z,101294.59
2022-10-09T05:27:13.156Z,101297.22
2022-10-09T05:30:14.541Z,101297.19
2022-10-09T05:33:16.281Z,101285.84
2022-10-09T05:36:17.833Z,101283.22
2022-10-09T05:39:19.214Z,101282.38
2022-10-09T05:42:20.595Z,101291.13
2022-10-09T05:45:22.623Z,101293.78
2022-10-09T05:48:24.038Z,101294.69
2022-10-09T05:51:37.521Z,101292.03
2022-10-09T05:54:38.957Z,101298.16
2022-10-09T05:57:40.363Z,101289.50
2022-10-09T06:00:41.738Z,101291.28
2022-10-09T06:03:43.146Z,101291.28
2022-10-09T06:06:47.427Z,101290.41
2022-10-09T06:09:48.842Z,101286.06
2022-10-09T06:12:50.517Z,101292.16
2022-10-09T06:15:53.925Z,101283.38
2022-10-09T06:18:56.230Z,101278.97
2022-10-09T06:21:57.621Z,101288.50
2022-10-09T06:24:59.041Z,101290.25
2022-10-09T06:28:00.446Z,101301.59
2022-10-09T06:31:13.094Z,101296.31
2022-10-09T06:34:14.505Z,101298.88
2022-10-09T06:37:15.897Z,101303.22
2022-10-09T06:40:17.279Z,101305.75
2022-10-09T06:43:18.868Z,101303.91
2022-10-09T06:46:21.919Z,101298.56
2022-10-09T06:49:23.485Z,101293.16
2022-10-09T06:52:24.869Z,101293.94
2022-10-09T06:55:28.748Z,101300.84
2022-10-09T06:58:30.706Z,101298.97
2022-10-09T07:01:32.936Z,101300.53
2022-10-09T07:04:34.432Z,101298.53
2022-10-09T07:07:39.716Z,101304.38
2022-10-09T07:10:41.090Z,101297.09
2022-10-09T07:13:43.664Z,101300.41
2022-10-09T07:16:47.101Z,101297.47
2022-10-09T07:19:49.170Z,101299.81
2022-10-09T07:22:51.111Z,101297.69
2022-10-09T07:25:52.845Z,101282.47
2022-10-09T07:28:54.383Z,101293.63
2022-10-09T07:31:55.760Z,101290.53
2022-10-09T07:34:57.145Z,101295.38
2022-10-09T07:37:58.680Z,101285.31
2022-10-09T07:41:06.445Z,101290.69
2022-10-09T07:44:07.937Z,101289.22
2022-10-09T07:47:09.444Z,101286.13
2022-10-09T07:50:11.932Z,101285.59
2022-10-09T07:53:13.333Z,101285.44
2022-10-09T07:56:16.878Z,101285.56
2022-10-09T07:59:18.333Z,101288.94
2022-10-09T08:02:19.857Z,101278.97
2022-10-09T08:05:21.426Z,101283.25
2022-10-09T08:08:22.864Z,101280.41
2022-10-09T08:11:25.977Z,101276.78
2022-10-09T08:14:27.490Z,101285.28
2022-10-09T08:17:28.880Z,101279.09
2022-10-09T08:20:30.266Z,101287.53
2022-10-09T08:23:31.676Z,101288.91
2022-10-09T08:26:33.217Z,101283.41
2022-10-09T08:29:37.971Z,101285.09
2022-10-09T08:32:41.694Z,101278.59
2022-10-09T08:35:43.140Z,101275.47
2022-10-09T08:38:47.666Z,101272.75
2022-10-09T08:41:53.357Z,101272.06
2022-10-09T08:44:55.133Z,101272.88
2022-10-09T08:48:06.432Z,101271.25
2022-10-09T08:51:18.480Z,101264.91
2022-10-09T08:54:40.303Z,101269.38
2022-10-09T08:57:44.167Z,101259.25
2022-10-09T09:00:52.035Z,101260.53
2022-10-09T09:04:32.725Z,101262.59
2022-10-09T09:07:40.236Z,101255.19
2022-10-09T09:10:50.570Z,101254.56
2022-10-09T09:14:21.183Z,101253.53
2022-10-09T09:17:22.536Z,101238.81
2022-10-09T09:20:52.894Z,101237.69
2022-10-09T09:23:55.393Z,101233.03
2022-10-09T09:27:01.964Z,101227.47
2022-10-09T09:30:15.894Z,101229.03
2022-10-09T09:33:58.253Z,101216.72
2022-10-09T09:37:00.195Z,101218.22
2022-10-09T09:40:35.470Z,101214.44
2022-10-09T09:43:25.339Z,101211.50
2022-10-09T09:46:29.849Z,101205.94
2022-10-09T09:49:31.326Z,101208.59
2022-10-09T09:52:40.595Z,101210.00
2022-10-09T09:55:42.404Z,101197.03
2022-10-09T09:58:50.202Z,101197.03
2022-10-09T10:02:00.586Z,101189.66
2022-10-09T10:05:16.245Z,101186.28
2022-10-09T10:08:29.585Z,101178.00
2022-10-09T10:11:33.064Z,101181.97
2022-10-09T10:14:35.285Z,101169.56
2022-10-09T10:17:37.354Z,101167.09
2022-10-09T10:20:51.009Z,101158.09
2022-10-09T10:27:22.302Z,101147.34
2022-10-09T10:30:23.898Z,101141.28
2022-10-09T10:33:29.634Z,101143.34
2022-10-09T10:36:33.839Z,101138.44
2022-10-09T10:40:05.025Z,101138.22
2022-10-09T10:43:09.494Z,101136.28
2022-10-09T10:46:32.447Z,101123.44
2022-10-09T10:49:34.179Z,101117.25
2022-10-09T10:53:20.312Z,101111.06
2022-10-09T10:56:37.845Z,101101.69
2022-10-09T10:59:44.950Z,101104.50
2022-10-09T11:03:08.167Z,101095.59
2022-10-09T11:06:23.101Z,101082.94
2022-10-09T11:09:44.925Z,101096.47
2022-10-09T11:12:58.063Z,101088.00
2022-10-09T11:16:33.506Z,101090.88
2022-10-09T11:19:57.149Z,101078.66
2022-10-09T11:23:31.470Z,101073.16
2022-10-09T11:26:59.662Z,101072.66
2022-10-09T11:30:13.751Z,101058.34
2022-10-09T11:33:18.162Z,101060.63
2022-10-09T11:36:27.518Z,101063.53
2022-10-09T11:39:32.356Z,101051.66
2022-10-09T11:42:34.029Z,101047.28
2022-10-09T11:45:47.411Z,101031.88
2022-10-09T11:49:03.948Z,101041.97
2022-10-09T11:52:11.465Z,101032.94
2022-10-09T11:55:20.624Z,101025.53
2022-10-09T11:58:24.339Z,101025.63
2022-10-09T12:01:33.223Z,101012.13
2022-10-09T12:04:53.917Z,101013.00
2022-10-09T12:08:07.544Z,101005.53
2022-10-09T12:11:13.157Z,100995.91
2022-10-09T12:14:24.835Z,101004.59
2022-10-09T12:17:26.155Z,100991.44
2022-10-09T12:20:28.262Z,100983.34
2022-10-09T12:23:34.532Z,100970.78
2022-10-09T12:26:36.507Z,100963.78
2022-10-09T12:29:45.818Z,100954.84
2022-10-09T12:32:53.818Z,100946.75
2022-10-09T12:36:12.468Z,100939.44
2022-10-09T12:39:24.257Z,100933.91
2022-10-09T12:42:26.878Z,100933.81
2022-10-09T12:45:30.725Z,100928.56
2022-10-09T12:48:38.323Z,100927.53
2022-10-09T12:51:39.833Z,100914.94
2022-10-09T12:54:44.075Z,100914.19
2022-10-09T12:57:45.778Z,100907.97
2022-10-09T13:00:49.457Z,100899.72
2022-10-09T13:04:05.097Z,100897.88
2022-10-09T13:07:16.530Z,100886.53
2022-10-09T13:10:23.167Z,100881.13
2022-10-09T13:13:28.193Z,100877.81
2022-10-09T13:16:41.954Z,100867.94
2022-10-09T13:19:54.606Z,100873.25
2022-10-09T13:23:01.743Z,100870.06
2022-10-09T13:26:05.690Z,100873.75
2022-10-09T13:29:07.886Z,100862.06
2022-10-09T13:32:12.959Z,100857.28
2022-10-09T13:35:14.444Z,100864.06
2022-10-09T13:38:17.772Z,100852.31
2022-10-09T13:41:24.200Z,100851.78
2022-10-09T13:44:25.656Z,100844.53
2022-10-09T13:47:27.029Z,100836.69
2022-10-09T13:50:29.331Z,100835.38
2022-10-09T13:53:30.780Z,100833.66
2022-10-09T13:56:32.232Z,100832.13
2022-10-09T13:59:33.745Z,100819.34
2022-10-09T14:02:35.225Z,100816.09
2022-10-09T14:05:36.615Z,100818.19
2022-10-09T14:08:38.008Z,100814.38
2022-10-09T14:11:39.460Z,100815.50
2022-10-09T14:14:41.056Z,100799.97
2022-10-09T14:17:42.591Z,100795.13
2022-10-09T14:20:44.435Z,100788.31
2022-10-09T14:23:45.832Z,100791.78
2022-10-09T14:26:51.366Z,100786.00
2022-10-09T14:29:55.335Z,100781.72
2022-10-09T14:32:59.268Z,100782.28
2022-10-09T14:36:09.190Z,100773.84
2022-10-09T14:39:10.759Z,100773.66
2022-10-09T14:42:12.210Z,100768.38
2022-10-09T14:45:13.597Z,100766.97
2022-10-09T14:48:14.982Z,100761.25
2022-10-09T14:51:19.607Z,100756.59
2022-10-09T14:54:21.209Z,100753.84
2022-10-09T14:57:22.592Z,100745.03
2022-10-09T15:00:24.011Z,100745.25
2022-10-09T15:03:27.117Z,100739.56
2022-10-09T15:06:28.751Z,100740.50
2022-10-09T15:09:30.246Z,100733.66
2022-10-09T15:12:31.651Z,100738.44
2022-10-09T15:15:33.106Z,100730.50
2022-10-09T15:18:35.444Z,100725.25
2022-10-09T15:21:36.949Z,100730.59
2022-10-09T15:24:38.553Z,100726.50
2022-10-09T15:27:39.970Z,100716.31
2022-10-09T15:30:46.305Z,100714.00
2022-10-09T15:33:52.485Z,100721.06
2022-10-09T15:36:53.957Z,100717.06
2022-10-09T15:39:55.405Z,100716.97
2022-10-09T15:42:56.802Z,100707.72
2022-10-09T15:46:04.615Z,100710.66
2022-10-09T15:49:06.830Z,100705.41
2022-10-09T15:52:08.499Z,100699.34
2022-10-09T15:55:09.937Z,100698.56
2022-10-09T15:58:12.289Z,100690.50
2022-10-09T16:01:15.690Z,100686.75
2022-10-09T16:04:17.224Z,100686.66
2022-10-09T16:07:18.625Z,100681.00
2022-10-09T16:10:20.005Z,100686.25
2022-10-09T16:13:23.324Z,100683.44
2022-10-09T16:16:27.414Z,100678.41
2022-10-09T16:19:28.889Z,100678.84
2022-10-09T16:22:30.384Z,100684.44
2022-10-09T16:25:31.994Z,100675.34
2022-10-09T16:28:34.383Z,100671.25
2022-10-09T16:31:36.970Z,100672.34
2022-10-09T16:34:38.368Z,100673.06
2022-10-09T16:37:39.771Z,100670.94
2022-10-09T16:41:02.677Z,100671.44
2022-10-09T16:44:06.232Z,100669.28
2022-10-09T16:47:08.038Z,100679.16
2022-10-09T16:50:10.405Z,100681.56
2022-10-09T16:53:11.860Z,100680.31
2022-10-09T16:56:19.923Z,100687.91
2022-10-09T16:59:21.334Z,100684.81
2022-10-09T17:02:22.836Z,100681.56
2022-10-09T17:05:25.384Z,100692.47
2022-10-09T17:08:26.933Z,100685.75
2022-10-09T17:11:30.464Z,100696.06
2022-10-09T17:14:32.005Z,100694.75
2022-10-09T17:17:33.723Z,100698.50
2022-10-09T17:20:37.302Z,100686.53
2022-10-09T17:23:39.131Z,100693.03
2022-10-09T17:26:40.683Z,100690.63
2022-10-09T17:29:42.096Z,100690.00
2022-10-09T17:32:43.478Z,100693.06
2022-10-09T17:35:44.876Z,100699.53
2022-10-09T17:38:48.146Z,100694.31
2022-10-09T17:41:49.802Z,100697.13
2022-10-09T17:44:51.206Z,100693.84
2022-10-09T17:47:52.732Z,100704.97
2022-10-09T17:50:56.381Z,100700.88
2022-10-09T17:54:01.018Z,100701.97
2022-10-09T17:57:05.147Z,100698.81
2022-10-09T18:00:07.276Z,100694.59
2022-10-09T18:03:08.840Z,100693.03
2022-10-09T18:06:13.361Z,100697.56
2022-10-09T18:09:14.742Z,100688.94
2022-10-09T18:12:16.169Z,100693.75
2022-10-09T18:15:17.673Z,100698.28
2022-10-09T18:18:19.258Z,100692.31
2022-10-09T18:21:20.663Z,100685.72
2022-10-09T18:24:22.066Z,100684.97
2022-10-09T18:27:23.877Z,100684.28
2022-10-09T18:30:25.708Z,100686.19
2022-10-09T18:33:27.119Z,100688.03
2022-10-09T18:36:34.288Z,100687.41
2022-10-09T18:39:35.808Z,100677.88
2022-10-09T18:42:37.275Z,100680.81
2022-10-09T18:45:44.286Z,100673.13
2022-10-09T18:48:45.852Z,100675.16
2022-10-09T18:51:48.710Z,100678.00
2022-10-09T18:54:53.006Z,100666.66
2022-10-09T18:57:55.125Z,100669.53
2022-10-09T19:00:56.575Z,100664.44
2022-10-09T19:03:58.046Z,100663.66
2022-10-09T19:07:00.040Z,100661.28
2022-10-09T19:10:01.542Z,100656.34
2022-10-09T19:13:03.188Z,100661.50
2022-10-09T19:16:05.612Z,100657.16
2022-10-09T19:19:07.208Z,100651.03
2022-10-09T19:22:14.113Z,100648.56
2022-10-09T19:25:16.864Z,100644.97
2022-10-09T19:28:19.236Z,100643.25
2022-10-09T19:31:20.825Z,100647.97
2022-10-09T19:34:22.333Z,100647.16
2022-10-09T19:37:27.449Z,100647.25
2022-10-09T19:40:31.229Z,100643.75
2022-10-09T19:43:33.325Z,100643.78
2022-10-09T19:46:39.609Z,100642.75
2022-10-09T19:49:41.919Z,100650.09
2022-10-09T19:52:46.781Z,100642.34
2022-10-09T19:55:48.200Z,100644.41
2022-10-09T19:58:49.905Z,100640.91
2022-10-09T20:01:56.594Z,100646.53
2022-10-09T20:04:58.902Z,100634.41
2022-10-09T20:08:00.827Z,100643.28
2022-10-09T20:11:03.921Z,100650.53
2022-10-09T20:14:05.532Z,100647.88
2022-10-09T20:17:06.942Z,100648.31
2022-10-09T20:20:08.637Z,100646.88
2022-10-09T20:23:10.013Z,100641.69
2022-10-09T20:26:14.701Z,100643.69
2022-10-09T20:29:16.111Z,100644.88
2022-10-09T20:32:18.389Z,100632.75
2022-10-09T20:35:19.907Z,100638.22
2022-10-09T20:38:25.563Z,100632.03
2022-10-09T20:41:29.974Z,100632.16
2022-10-09T20:44:31.363Z,100618.84
2022-10-09T20:47:32.784Z,100627.94
2022-10-09T20:50:38.773Z,100627.81
2022-10-09T20:53:40.136Z,100619.00
2022-10-09T20:56:41.897Z,100616.53
2022-10-09T20:59:43.717Z,100620.78
2022-10-09T21:02:45.131Z,100621.56
2022-10-09T21:05:46.626Z,100620.25
2022-10-09T21:08:48.548Z,100616.66
2022-10-09T21:11:50.600Z,100618.50
2022-10-09T21:14:52.017Z,100613.63
2022-10-09T21:17:53.406Z,100617.34
2022-10-09T21:20:54.913Z,100620.03
2022-10-09T21:23:58.343Z,100618.31
2022-10-09T21:26:59.778Z,100621.00
2022-10-09T21:30:01.176Z,100614.94
2022-10-09T21:33:02.579Z,100617.59
2022-10-09T21:36:13.081Z,100617.94
2022-10-09T21:39:14.534Z,100619.94
2022-10-09T21:42:15.975Z,100608.47
2022-10-09T21:45:17.921Z,100613.16
2022-10-09T21:48:19.496Z,100611.31
2022-10-09T21:51:21.054Z,100605.22
2022-10-09T21:54:22.711Z,100604.69
2022-10-09T21:57:24.094Z,100609.31
2022-10-09T22:00:25.532Z,100600.56
2022-10-09T22:03:29.932Z,100604.00
2022-10-09T22:06:31.352Z,100603.22
2022-10-09T22:09:32.789Z,100598.72
2022-10-09T22:12:34.550Z,100591.66
2022-10-09T22:15:40.697Z,100593.59
2022-10-09T22:18:42.682Z,100594.34
2022-10-09T22:21:44.129Z,100591.50
2022-10-09T22:24:45.559Z,100595.16
2022-10-09T22:27:46.985Z,100598.72
2022-10-09T22:30:48.377Z,100608.50
2022-10-09T22:33:58.780Z,100601.59
2022-10-09T22:37:00.258Z,100607.75
2022-10-09T22:40:01.630Z,100603.22
2022-10-09T22:43:03.000Z,100605.16
2022-10-09T22:46:09.522Z,100600.03
2022-10-09T22:49:14.146Z,100584.88
2022-10-09T22:52:15.565Z,100594.69
2022-10-09T22:55:16.990Z,100589.41
2022-10-09T22:58:18.392Z,100595.47
2022-10-09T23:01:24.965Z,100591.25
2022-10-09T23:04:26.484Z,100591.06
2022-10-09T23:07:27.868Z,100593.88
2022-10-09T23:10:29.260Z,100593.22
2022-10-09T23:13:30.716Z,100594.28
2022-10-09T23:16:32.564Z,100589.13
2022-10-09T23:19:34.659Z,100590.00
2022-10-09T23:22:36.441Z,100591.69
2022-10-09T23:25:41.746Z,100593.22
2022-10-09T23:28:43.997Z,100584.47
2022-10-09T23:31:46.477Z,100577.44
2022-10-09T23:34:47.886Z,100582.94
2022-10-09T23:37:49.307Z,100575.13
2022-10-09T23:41:00.497Z,100582.16
2022-10-09T23:44:02.208Z,100570.19
2022-10-09T23:47:03.624Z,100576.28
2022-10-09T23:50:06.334Z,100573.59
2022-10-09T23:53:07.868Z,100576.28
2022-10-09T23:56:23.172Z,100572.91
2022-10-09T23:59:24.569Z,100574.75
